createdAt,value
2023-04-14T00:01:43.494Z,17.62
2023-04-14T00:06:48.557Z,17.62
2023-04-14T00:11:52.928Z,17.65
2023-04-14T00:16:57.799Z,17.74
2023-04-14T00:22:02.909Z,17.79
2023-04-14T00:27:08.916Z,17.87
2023-04-14T00:32:14.626Z,17.94
2023-04-14T00:37:19.652Z,18.01
2023-04-14T00:42:25.114Z,18.01
2023-04-14T00:47:30.621Z,18.04
2023-04-14T00:52:35.860Z,17.93
2023-04-14T00:57:41.715Z,17.96
2023-04-14T01:02:47.153Z,18.01
2023-04-14T01:07:52.553Z,18.01
2023-04-14T01:13:38.443Z,18.06
2023-04-14T01:19:05.136Z,18.09
2023-04-14T01:24:39.581Z,18.16
2023-04-14T01:30:02.861Z,18.20
2023-04-14T01:35:21.863Z,18.44
2023-04-14T01:40:30.306Z,18.81
2023-04-14T01:45:41.301Z,19.13
2023-04-14T01:50:48.579Z,19.29
2023-04-14T01:55:55.657Z,19.38
2023-04-14T02:01:02.080Z,19.42
2023-04-14T02:06:08.426Z,19.54
2023-04-14T02:11:17.246Z,19.81
2023-04-14T02:16:22.291Z,20.24
2023-04-14T02:21:29.885Z,20.49
2023-04-14T02:26:38.989Z,20.59
2023-04-14T02:31:52.099Z,20.62
2023-04-14T02:36:59.691Z,20.73
2023-04-14T02:42:13.046Z,20.64
2023-04-14T02:47:40.237Z,20.90
2023-04-14T02:52:52.725Z,21.02
2023-04-14T02:58:03.900Z,21.26
2023-04-14T03:03:15.141Z,21.33
2023-04-14T03:08:21.873Z,21.35
2023-04-14T03:13:33.426Z,21.55
2023-04-14T03:18:39.466Z,21.74
2023-04-14T03:23:47.096Z,22.09
2023-04-14T03:28:54.758Z,22.33
2023-04-14T03:34:04.095Z,22.57
2023-04-14T03:39:16.070Z,22.68
2023-04-14T03:44:23.270Z,22.64
2023-04-14T03:49:30.656Z,22.46
2023-04-14T03:54:39.649Z,22.29
2023-04-14T03:59:49.116Z,22.02
2023-04-14T04:05:00.240Z,21.69
2023-04-14T04:10:10.870Z,21.65
2023-04-14T04:15:16.342Z,21.62
2023-04-14T04:20:23.518Z,21.65
2023-04-14T04:25:28.625Z,21.62
2023-04-14T04:30:48.909Z,21.62
2023-04-14T04:35:55.843Z,21.64
2023-04-14T04:41:08.270Z,21.66
2023-04-14T04:46:45.086Z,21.65
2023-04-14T04:51:52.664Z,21.53
2023-04-14T04:57:00.126Z,21.55
2023-04-14T05:02:05.845Z,21.49
2023-04-14T05:07:11.740Z,21.43
2023-04-14T05:12:18.123Z,21.50
2023-04-14T05:17:23.549Z,21.57
2023-04-14T05:22:29.019Z,21.47
2023-04-14T05:27:35.837Z,21.55
2023-04-14T05:32:41.329Z,21.53
2023-04-14T05:37:46.623Z,21.63
2023-04-14T05:42:52.224Z,21.62
2023-04-14T05:47:57.041Z,21.62
2023-04-14T05:53:02.852Z,21.73
2023-04-14T05:58:08.173Z,21.86
2023-04-14T06:03:13.960Z,22.02
2023-04-14T06:08:21.267Z,22.17
2023-04-14T06:13:27.519Z,22.13
2023-04-14T06:18:34.445Z,22.21
2023-04-14T06:23:39.652Z,22.25
2023-04-14T06:28:45.768Z,22.29
2023-04-14T06:33:51.070Z,22.33
2023-04-14T06:38:58.829Z,22.21
2023-04-14T06:44:04.485Z,22.11
2023-04-14T06:49:10.219Z,22.13
2023-04-14T06:54:15.356Z,22.28
2023-04-14T06:59:22.718Z,22.59
2023-04-14T07:04:28.330Z,22.93
2023-04-14T07:09:33.820Z,23.13
2023-04-14T07:14:39.330Z,23.35
2023-04-14T07:19:46.359Z,23.39
2023-04-14T07:24:52.247Z,23.46
2023-04-14T07:29:58.121Z,23.62
2023-04-14T07:35:03.357Z,23.72
2023-04-14T07:40:09.975Z,23.88
2023-04-14T07:45:15.210Z,24.03
2023-04-14T07:50:20.790Z,24.14
2023-04-14T07:55:27.542Z,24.22
2023-04-14T08:00:33.286Z,24.13
2023-04-14T08:05:39.240Z,23.98
2023-04-14T08:10:44.701Z,23.93
2023-04-14T08:15:50.663Z,23.86
2023-04-14T08:20:56.063Z,23.71
2023-04-14T08:26:01.642Z,23.65
2023-04-14T08:31:08.246Z,23.72
2023-04-14T08:36:14.687Z,23.84
2023-04-14T08:41:22.516Z,23.72
2023-04-14T08:46:29.848Z,23.58
2023-04-14T08:51:40.838Z,23.30
2023-04-14T08:56:45.962Z,23.06
2023-04-14T09:01:52.550Z,22.80
2023-04-14T09:06:59.112Z,22.72
2023-04-14T09:12:05.471Z,22.55
2023-04-14T09:17:10.736Z,22.45
2023-04-14T09:22:16.822Z,22.40
2023-04-14T09:27:22.108Z,22.30
2023-04-14T09:32:28.344Z,22.16
2023-04-14T09:37:47.685Z,22.00
2023-04-14T09:42:53.548Z,21.83
2023-04-14T09:48:12.247Z,21.71
2023-04-14T09:53:18.021Z,21.63
2023-04-14T09:58:25.562Z,21.40
2023-04-14T10:03:45.713Z,21.33
2023-04-14T10:08:53.647Z,21.20
2023-04-14T10:14:02.716Z,21.01
2023-04-14T10:19:08.213Z,20.93
2023-04-14T10:24:14.240Z,20.84
2023-04-14T10:29:20.118Z,20.69
2023-04-14T10:34:25.909Z,20.42
2023-04-14T10:39:31.243Z,20.37
2023-04-14T10:44:39.141Z,20.16
2023-04-14T10:49:45.776Z,20.02
2023-04-14T10:54:59.468Z,19.92
2023-04-14T11:00:24.724Z,19.83
2023-04-14T11:05:29.489Z,19.71
2023-04-14T11:10:35.449Z,19.61
2023-04-14T11:16:02.982Z,19.53
2023-04-14T11:21:10.066Z,19.47
2023-04-14T11:26:15.502Z,19.31
2023-04-14T11:31:23.000Z,19.22
2023-04-14T11:36:30.187Z,19.13
2023-04-14T11:41:36.298Z,19.04
2023-04-14T11:46:42.767Z,18.97
2023-04-14T11:51:50.533Z,18.83
2023-04-14T11:56:55.556Z,18.78
2023-04-14T12:02:00.665Z,18.66
2023-04-14T12:07:15.919Z,18.61
2023-04-14T12:12:21.515Z,18.65
2023-04-14T12:17:28.056Z,18.60
2023-04-14T12:22:35.764Z,18.48
2023-04-14T12:27:42.510Z,18.46
2023-04-14T12:32:49.037Z,18.30
2023-04-14T12:37:54.750Z,18.27
2023-04-14T12:42:59.838Z,18.19
2023-04-14T12:48:06.147Z,18.14
2023-04-14T12:53:31.106Z,18.03
2023-04-14T12:58:39.966Z,17.98
2023-04-14T13:03:51.026Z,17.93
2023-04-14T13:09:01.206Z,17.78
2023-04-14T13:14:08.656Z,17.76
2023-04-14T13:19:14.776Z,17.68
2023-04-14T13:24:19.994Z,17.59
2023-04-14T13:29:25.705Z,17.52
2023-04-14T13:34:32.997Z,17.44
2023-04-14T13:39:38.158Z,17.34
2023-04-14T13:44:45.234Z,17.22
2023-04-14T13:49:50.575Z,17.16
2023-04-14T13:54:56.967Z,17.09
2023-04-14T14:00:02.204Z,17.01
2023-04-14T14:05:12.235Z,16.92
2023-04-14T14:10:17.413Z,16.84
2023-04-14T14:15:22.393Z,16.80
2023-04-14T14:20:27.613Z,16.71
2023-04-14T14:25:37.365Z,16.62
2023-04-14T14:30:42.724Z,16.50
2023-04-14T14:35:49.106Z,16.37
2023-04-14T14:40:57.266Z,16.26
2023-04-14T14:46:04.137Z,16.14
2023-04-14T14:51:10.981Z,16.06
2023-04-14T14:56:16.117Z,15.91
2023-04-14T15:01:22.591Z,15.82
2023-04-14T15:06:29.197Z,15.73
2023-04-14T15:11:34.196Z,15.60
2023-04-14T15:16:39.261Z,15.44
2023-04-14T15:21:48.127Z,15.33
2023-04-14T15:26:53.355Z,15.20
2023-04-14T15:31:58.912Z,15.11
2023-04-14T15:37:05.203Z,15.00
2023-04-14T15:42:10.194Z,15.02
2023-04-14T15:47:15.341Z,14.96
2023-04-14T15:52:22.438Z,14.85
2023-04-14T15:57:28.662Z,14.73
2023-04-14T16:02:39.406Z,14.62
2023-04-14T16:07:48.179Z,14.51
2023-04-14T16:12:54.277Z,14.38
2023-04-14T16:17:59.717Z,14.28
2023-04-14T16:23:05.500Z,14.19
2023-04-14T16:28:10.714Z,14.14
2023-04-14T16:33:16.824Z,14.04
2023-04-14T16:38:22.440Z,13.94
2023-04-14T16:43:29.182Z,13.78
2023-04-14T16:48:34.915Z,13.72
2023-04-14T16:53:40.412Z,13.67
2023-04-14T16:58:45.468Z,13.65
2023-04-14T17:03:51.784Z,13.58
2023-04-14T17:08:56.836Z,13.67
2023-04-14T17:14:03.317Z,13.61
2023-04-14T17:19:08.685Z,13.50
2023-04-14T17:24:14.113Z,13.46
2023-04-14T17:29:18.989Z,13.40
2023-04-14T17:34:24.188Z,13.33
2023-04-14T17:39:29.510Z,13.30
2023-04-14T17:44:36.174Z,13.26
2023-04-14T17:49:41.187Z,13.16
2023-04-14T17:54:57.299Z,13.05
2023-04-14T18:00:03.640Z,12.91
2023-04-14T18:05:16.767Z,12.87
2023-04-14T18:10:23.925Z,12.79
2023-04-14T18:15:28.940Z,12.74
2023-04-14T18:20:33.891Z,12.67
2023-04-14T18:30:47.707Z,12.47
2023-04-14T18:35:54.608Z,12.54
2023-04-14T18:41:06.538Z,12.63
2023-04-14T18:46:11.311Z,12.72
2023-04-14T18:51:17.375Z,12.80
2023-04-14T18:56:22.698Z,12.84
2023-04-14T19:01:27.625Z,12.92
2023-04-14T19:06:34.162Z,12.90
2023-04-14T19:11:39.084Z,12.91
2023-04-14T19:16:45.230Z,12.90
2023-04-14T19:21:51.383Z,12.98
2023-04-14T19:26:56.506Z,13.00
2023-04-14T19:32:00.845Z,12.97
2023-04-14T19:37:06.085Z,12.94
2023-04-14T19:42:10.868Z,12.90
2023-04-14T19:47:15.719Z,12.89
2023-04-14T19:52:20.450Z,12.91
2023-04-14T19:57:25.388Z,12.85
2023-04-14T20:02:31.286Z,12.80
2023-04-14T20:07:36.726Z,12.78
2023-04-14T20:12:41.670Z,12.77
2023-04-14T20:17:47.464Z,12.81
2023-04-14T20:22:52.556Z,12.81
2023-04-14T20:27:57.555Z,12.76
2023-04-14T20:33:08.066Z,12.73
2023-04-14T20:38:15.804Z,12.69
2023-04-14T20:43:20.796Z,12.63
2023-04-14T20:48:25.774Z,12.60
2023-04-14T20:53:31.370Z,12.58
2023-04-14T20:58:36.272Z,12.55
2023-04-14T21:03:41.344Z,12.50
2023-04-14T21:08:47.311Z,12.49
2023-04-14T21:15:36.870Z,12.43
2023-04-14T21:19:19.654Z,12.38
2023-04-14T21:24:25.243Z,12.47
2023-04-14T21:29:30.619Z,12.48
2023-04-14T21:34:35.419Z,12.43
2023-04-14T21:39:40.916Z,12.42
2023-04-14T21:44:46.152Z,12.41
2023-04-14T21:49:52.082Z,12.37
2023-04-14T21:54:58.491Z,12.30
2023-04-14T22:00:04.471Z,12.37
2023-04-14T22:05:13.768Z,12.34
2023-04-14T22:10:18.707Z,12.36
2023-04-14T22:15:24.775Z,12.38
2023-04-14T22:20:30.058Z,12.38
2023-04-14T22:25:35.944Z,12.45
2023-04-14T22:30:40.865Z,12.49
2023-04-14T22:35:46.905Z,12.58
2023-04-14T22:40:52.702Z,12.66
2023-04-14T22:45:58.456Z,12.74
2023-04-14T22:51:03.329Z,12.79
2023-04-14T22:56:08.763Z,12.85
2023-04-14T23:01:21.881Z,12.92
2023-04-14T23:06:27.678Z,12.97
2023-04-14T23:11:34.290Z,13.03
2023-04-14T23:16:40.416Z,13.11
2023-04-14T23:21:46.715Z,13.20
2023-04-14T23:26:52.471Z,13.30
2023-04-14T23:31:57.847Z,13.41
2023-04-14T23:37:02.997Z,13.47
2023-04-14T23:42:08.312Z,13.59
2023-04-14T23:47:13.219Z,13.70
2023-04-14T23:52:19.111Z,13.83
2023-04-14T23:57:25.750Z,13.97
